Time;durP1;ratioP1;P1;durP2;ratioP2;P2;SDS_P1;SDS_P2;PMS_P1;PMS_P2;Temp;Humidity;BMP_temperature;BMP_pressure;BME280_temperature;BME280_humidity;BME280_pressure;Samples;Min_cycle;Max_cycle;Signal;HPM_P1;HPM_P2
2022/12/11 00:00:17;;;;;;;14.27;12.77;;;15.70;52.80;16.80;100321.00;;;;5069478;28;20539;-43
2022/12/11 00:02:43;;;;;;;14.23;12.73;;;15.70;52.70;16.80;100330.00;;;;5068671;28;20197;-44
2022/12/11 00:05:08;;;;;;;14.27;12.77;;;15.70;52.70;16.70;100316.00;;;;5069436;28;20260;-44
2022/12/11 00:07:34;;;;;;;14.67;13.00;;;15.60;52.60;16.70;100337.00;;;;5069188;28;20566;-44
2022/12/11 00:10:00;;;;;;;14.93;13.43;;;15.60;52.50;16.70;100323.00;;;;5069279;28;20185;-42
2022/12/11 00:12:26;;;;;;;14.10;12.60;;;15.50;52.40;16.70;100316.00;;;;5068944;28;20181;-44
2022/12/11 00:14:51;;;;;;;15.13;12.53;;;15.50;52.40;16.60;100333.00;;;;5069274;28;20204;-42
2022/12/11 00:17:17;;;;;;;13.90;12.17;;;15.40;52.40;16.60;100334.00;;;;5068940;28;20185;-44
2022/12/11 00:19:43;;;;;;;13.03;11.57;;;15.40;52.30;16.60;100332.00;;;;5069478;28;20197;-45
2022/12/11 00:22:09;;;;;;;15.57;12.47;;;15.40;52.30;16.60;100333.00;;;;5068594;28;20210;-44
2022/12/11 00:24:34;;;;;;;14.60;13.00;;;15.40;52.40;16.50;100334.00;;;;5069095;28;20673;-43
2022/12/11 00:27:00;;;;;;;13.73;12.20;;;15.50;52.60;16.50;100324.00;;;;5068974;28;20176;-43
2022/12/11 00:29:26;;;;;;;14.20;12.80;;;15.40;52.60;16.50;100338.00;;;;5069134;28;20186;-43
2022/12/11 00:31:51;;;;;;;14.50;12.30;;;15.40;52.40;16.50;100252.00;;;;5067773;28;20173;-43
2022/12/11 00:34:17;;;;;;;13.23;11.83;;;15.40;52.50;16.40;100337.00;;;;5068035;28;20173;-43
2022/12/11 00:36:43;;;;;;;13.90;12.40;;;15.30;52.40;16.40;100334.00;;;;5067757;28;20601;-43
2022/12/11 00:39:09;;;;;;;13.53;12.10;;;15.30;52.40;16.40;100332.00;;;;5067785;28;20239;-43
2022/12/11 00:41:34;;;;;;;14.03;12.20;;;15.30;52.40;16.40;100326.00;;;;5067865;28;20536;-43
2022/12/11 00:44:00;;;;;;;15.63;13.20;;;15.30;52.50;16.40;100336.00;;;;5068306;28;20276;-43
2022/12/11 00:46:26;;;;;;;13.67;12.27;;;15.30;52.60;16.30;100330.00;;;;5067931;28;20166;-44
2022/12/11 00:48:52;;;;;;;15.43;13.13;;;15.20;52.50;16.30;100333.00;;;;5067877;28;20186;-43
2022/12/11 00:51:18;;;;;;;14.30;12.80;;;15.20;52.50;16.30;100318.00;;;;5067611;28;20181;-43
2022/12/11 00:53:43;;;;;;;15.50;13.33;;;15.20;52.70;16.30;100326.00;;;;5067775;28;20169;-42
2022/12/11 00:56:15;;;;;;;15.93;13.07;;;15.10;52.40;16.20;100322.00;;;;5067872;28;20165;-42
2022/12/11 00:58:41;;;;;;;16.33;13.47;;;15.10;52.50;16.20;100322.00;;;;5067788;28;20193;-42
2022/12/11 01:01:18;;;;;;;16.63;14.00;;;15.10;52.70;16.20;100309.00;;;;5067640;28;20169;-43
2022/12/11 01:03:44;;;;;;;14.87;13.37;;;15.10;52.60;16.20;100314.00;;;;5067826;28;20272;-43
2022/12/11 01:06:18;;;;;;;14.73;13.17;;;15.10;52.70;16.20;100313.00;;;;5070667;28;20284;-42
2022/12/11 01:08:44;;;;;;;15.70;14.00;;;15.10;52.70;16.10;100310.00;;;;5071850;28;20684;-43
2022/12/11 01:11:12;;;;;;;15.20;13.60;;;15.00;52.50;16.10;100318.00;;;;5071678;28;20177;-43
2022/12/11 01:13:38;;;;;;;15.03;13.53;;;15.00;52.60;16.10;100319.00;;;;5072180;28;20181;-44
2022/12/11 01:16:12;;;;;;;15.43;13.10;;;15.00;52.60;16.10;100319.00;;;;5072479;28;20279;-42
2022/12/11 01:18:38;;;;;;;15.80;13.80;;;15.00;52.60;16.10;100314.00;;;;5071887;28;20201;-42
2022/12/11 01:21:08;;;;;;;16.10;14.40;;;14.90;52.50;16.10;100321.00;;;;5071405;28;20223;-43
2022/12/11 01:23:34;;;;;;;15.23;13.63;;;14.90;52.50;16.00;100330.00;;;;5071504;28;20212;-42
2022/12/11 01:26:12;;;;;;;15.70;14.10;;;14.90;52.50;16.00;100318.00;;;;5071764;28;20632;-43
2022/12/11 01:28:37;;;;;;;15.63;14.00;;;14.90;52.50;16.00;100323.00;;;;5071134;28;20268;-42
2022/12/11 01:31:08;;;;;;;16.67;14.87;;;14.80;52.50;16.00;100332.00;;;;5071396;28;20180;-43
2022/12/11 01:33:34;;;;;;;15.17;13.17;;;14.80;52.50;15.90;100337.00;;;;5071186;28;20158;-43
2022/12/11 01:35:59;;;;;;;15.50;13.80;;;14.80;52.70;15.90;100326.00;;;;5071405;28;20257;-42
2022/12/11 01:38:25;;;;;;;16.87;14.07;;;14.70;52.40;15.90;100319.00;;;;5071404;28;20213;-42
2022/12/11 01:40:51;;;;;;;16.93;14.90;;;14.70;52.50;15.90;100326.00;;;;5071347;28;20578;-43
2022/12/11 01:43:17;;;;;;;14.70;13.00;;;14.70;52.50;15.90;100323.00;;;;5071061;28;20198;-43
2022/12/11 01:45:44;;;;;;;16.20;14.40;;;14.70;52.60;15.90;100325.00;;;;5053851;28;20176;-44
2022/12/11 01:48:13;;;;;;;15.90;14.20;;;14.70;52.70;15.80;100322.00;;;;5071651;28;20212;-43
2022/12/11 01:50:49;;;;;;;17.27;14.40;;;14.70;52.60;15.80;100310.00;;;;5071323;28;20184;-43
2022/12/11 01:53:19;;;;;;;17.03;14.40;;;14.60;52.60;15.80;100318.00;;;;5037605;28;20165;-43
2022/12/11 01:55:45;;;;;;;16.17;14.30;;;14.60;52.60;15.80;100315.00;;;;5053377;28;20169;-43
2022/12/11 01:58:11;;;;;;;17.07;14.60;;;14.60;52.60;15.70;100312.00;;;;5052896;28;20201;-43
2022/12/11 02:00:37;;;;;;;17.53;14.23;;;14.60;52.50;15.70;100302.00;;;;5036472;28;20272;-43
2022/12/11 02:03:03;;;;;;;17.40;14.63;;;14.50;52.50;15.70;100304.00;;;;5070575;28;20193;-42
2022/12/11 02:05:28;;;;;;;15.13;13.53;;;14.50;52.60;15.70;100306.00;;;;5052703;28;20260;-42
2022/12/11 02:07:58;;;;;;;17.00;14.50;;;14.50;52.60;15.70;100307.00;;;;5070472;28;20189;-43
2022/12/11 02:11:04;;;;;;;16.07;14.33;;;14.50;52.60;15.70;100298.00;;;;5052925;28;20785;-44
2022/12/11 02:13:53;;;;;;;17.67;14.87;;;14.50;52.60;15.60;100308.00;;;;5051667;28;20186;-42
2022/12/11 02:16:32;;;;;;;16.93;14.40;;;14.40;52.50;15.60;100304.00;;;;5055546;28;20736;-44
2022/12/11 02:19:30;;;;;;;17.67;14.70;;;14.40;52.50;15.60;100306.00;;;;5052742;28;20201;-44
2022/12/11 02:21:56;;;;;;;17.03;14.80;;;14.40;52.70;15.50;100300.00;;;;5054225;28;20184;-43
2022/12/11 02:24:50;;;;;;;17.37;15.10;;;14.40;52.50;15.50;100301.00;;;;5053249;28;20162;-42
2022/12/11 02:28:06;;;;;;;17.87;14.60;;;14.30;52.50;15.50;100294.00;;;;5054907;28;20166;-43
2022/12/11 02:30:32;;;;;;;17.70;15.00;;;14.40;52.60;15.50;100294.00;;;;5063353;28;20557;-43
2022/12/11 02:32:58;;;;;;;17.83;15.10;;;14.30;52.50;15.40;100286.00;;;;5052862;28;20166;-43
2022/12/11 02:35:36;;;;;;;17.63;15.20;;;14.30;52.60;15.50;100295.00;;;;5052567;28;20172;-43
2022/12/11 02:38:05;;;;;;;17.83;14.67;;;14.30;52.60;15.40;100275.00;;;;5052784;28;20193;-44
2022/12/11 02:40:31;;;;;;;17.33;14.70;;;14.30;52.60;15.40;100288.00;;;;5036370;28;20166;-50
2022/12/11 02:42:59;;;;;;;17.03;15.10;;;14.20;52.70;15.40;100287.00;;;;5052480;28;20611;-43
2022/12/11 02:45:25;;;;;;;18.00;16.03;;;14.20;52.60;15.40;100288.00;;;;5052755;28;20629;-43
2022/12/11 02:47:50;;;;;;;17.50;15.03;;;14.20;52.60;15.40;100276.00;;;;5052288;28;20269;-43
2022/12/11 02:50:19;;;;;;;18.50;14.70;;;14.20;52.70;15.40;100293.00;;;;5052638;28;20820;-43
2022/12/11 02:52:45;;;;;;;18.70;15.20;;;14.20;52.60;15.40;100296.00;;;;5052426;28;20173;-43
2022/12/11 02:55:11;;;;;;;18.93;15.33;;;14.20;52.70;15.40;100288.00;;;;5052648;28;20655;-43
2022/12/11 02:58:05;;;;;;;17.80;15.30;;;14.20;52.70;15.30;100255.00;;;;5052760;28;20178;-42
2022/12/11 03:00:31;;;;;;;18.73;15.17;;;14.10;52.60;15.30;100284.00;;;;5052127;28;20173;-43
2022/12/11 03:02:56;;;;;;;19.43;15.33;;;14.10;52.60;15.30;100282.00;;;;5069580;28;20212;-42
2022/12/11 03:05:22;;;;;;;19.10;15.80;;;14.10;52.60;15.30;100276.00;;;;5052224;28;20299;-42
2022/12/11 03:07:48;;;;;;;17.73;15.00;;;14.10;52.70;15.30;100283.00;;;;5052174;28;20165;-42
2022/12/11 03:10:17;;;;;;;18.87;15.73;;;14.10;52.80;15.20;100267.00;;;;5070077;28;20613;-41
2022/12/11 03:12:46;;;;;;;18.60;16.37;;;14.10;52.80;15.20;100258.00;;;;5052450;28;20256;-44
2022/12/11 03:15:14;;;;;;;18.70;15.57;;;14.00;52.70;15.20;100275.00;;;;5052094;28;20174;-42
2022/12/11 03:17:55;;;;;;;17.80;15.67;;;14.00;52.60;15.20;100278.00;;;;5035269;28;20641;-43
2022/12/11 03:20:46;;;;;;;19.50;16.03;;;14.00;52.80;15.20;100276.00;;;;5069885;28;20173;-43
2022/12/11 03:23:36;;;;;;;20.03;15.67;;;13.90;52.60;15.20;100284.00;;;;5053379;28;20188;-44
2022/12/11 03:26:09;;;;;;;16.93;14.97;;;14.00;52.80;15.20;100271.00;;;;5069622;28;20173;-43
2022/12/11 03:28:55;;;;;;;16.87;15.03;;;13.90;52.70;15.10;100274.00;;;;5051785;28;20190;-43
2022/12/11 03:31:42;;;;;;;18.17;15.73;;;13.90;52.80;15.10;100272.00;;;;5052783;28;20756;-43
2022/12/11 03:34:27;;;;;;;17.30;15.33;;;13.90;52.80;15.10;100284.00;;;;5037819;28;20162;-43
2022/12/11 03:36:55;;;;;;;17.47;14.40;;;14.00;52.90;15.10;100284.00;;;;5053722;28;20176;-43
2022/12/11 03:39:47;;;;;;;18.80;15.00;;;13.90;52.70;15.10;100288.00;;;;5051900;28;20201;-43
2022/12/11 03:42:13;;;;;;;17.63;14.80;;;13.90;52.70;15.10;100275.00;;;;5034729;28;20194;-41
2022/12/11 03:44:38;;;;;;;16.30;13.90;;;13.90;52.80;15.00;100295.00;;;;5051610;28;20895;-41
2022/12/11 03:47:06;;;;;;;16.63;14.53;;;13.90;52.80;15.00;100294.00;;;;5051782;28;20166;-43
2022/12/11 03:49:38;;;;;;;18.00;14.63;;;13.80;52.70;15.00;100289.00;;;;5051116;28;20206;-42
2022/12/11 03:52:03;;;;;;;17.73;15.10;;;13.80;52.60;15.00;100288.00;;;;5051158;28;20157;-44
2022/12/11 03:54:29;;;;;;;15.93;14.27;;;13.80;52.90;15.00;100269.00;;;;5069375;28;20201;-43
2022/12/11 03:56:57;;;;;;;18.53;14.83;;;13.80;53.50;14.90;100274.00;;;;5051115;28;20271;-42
2022/12/11 03:59:22;;;;;;;16.13;14.07;;;13.70;52.90;14.90;100288.00;;;;5034660;28;20224;-43
2022/12/11 04:01:48;;;;;;;16.17;13.97;;;13.80;53.00;14.90;100275.00;;;;5034357;28;20193;-43
2022/12/11 04:04:14;;;;;;;16.40;13.80;;;13.80;52.90;14.90;100272.00;;;;5069212;28;20288;-45
2022/12/11 04:06:40;;;;;;;17.57;14.00;;;13.70;52.70;14.90;100275.00;;;;5069392;28;20173;-42
2022/12/11 04:09:05;;;;;;;15.17;13.57;;;13.70;52.70;14.90;100267.00;;;;5069138;28;20190;-41
2022/12/11 04:11:34;;;;;;;15.57;13.67;;;13.70;52.80;14.90;100271.00;;;;5068727;28;20165;-42
2022/12/11 04:16:55;;;;;;;15.03;13.40;;;13.70;52.80;14.90;100273.00;;;;5068629;28;20185;-44
2022/12/11 04:24:49;;;;;;;14.37;12.60;;;13.60;52.80;14.80;100273.00;;;;5068674;28;20325;-43
2022/12/11 04:27:47;;;;;;;13.83;12.40;;;13.70;52.90;14.80;100265.00;;;;5069430;28;20161;-43
2022/12/11 04:30:04;;;;;;;14.53;12.77;;;13.60;53.00;14.80;100270.00;;;;5069234;28;20730;-43
2022/12/11 04:32:30;;;;;;;15.07;12.50;;;13.60;53.20;14.80;100278.00;;;;5066365;28;20769;-42
2022/12/11 04:34:55;;;;;;;16.40;12.47;;;13.60;53.60;14.80;100274.00;;;;5068392;28;20226;-41
2022/12/11 04:37:21;;;;;;;15.93;12.87;;;13.60;54.10;14.80;100267.00;;;;5069090;28;20243;-42
2022/12/11 04:39:47;;;;;;;12.77;11.47;;;13.60;53.50;14.80;100267.00;;;;5067897;28;20190;-45
2022/12/11 04:42:13;;;;;;;13.73;11.67;;;13.60;53.20;14.80;100263.00;;;;5068108;28;20630;-43
2022/12/11 04:44:38;;;;;;;13.70;11.50;;;13.60;53.20;14.70;100264.00;;;;5068354;28;20176;-42
2022/12/11 04:47:04;;;;;;;15.83;12.40;;;13.60;53.40;14.70;100266.00;;;;5068390;28;20176;-43
2022/12/11 04:49:30;;;;;;;15.40;12.17;;;13.60;53.20;14.70;100178.00;;;;5068045;28;20185;-43
2022/12/11 04:51:55;;;;;;;14.10;12.33;;;13.50;53.10;14.70;100268.00;;;;5067918;28;20165;-43
2022/12/11 04:54:21;;;;;;;19.53;13.13;;;13.50;53.20;14.60;100256.00;;;;5067647;28;20170;-42
2022/12/11 04:56:47;;;;;;;14.87;12.60;;;13.40;53.00;14.60;100259.00;;;;5050100;28;20170;-42
2022/12/11 04:59:13;;;;;;;15.07;12.60;;;13.40;53.10;14.60;100261.00;;;;5067852;28;20189;-42
2022/12/11 05:01:39;;;;;;;14.70;13.10;;;13.40;53.10;14.60;100267.00;;;;5049162;28;20252;-42
2022/12/11 05:04:05;;;;;;;17.80;14.50;;;13.30;53.00;14.60;100252.00;;;;5067406;28;20223;-42
2022/12/11 05:06:30;;;;;;;19.63;15.50;;;13.30;52.80;14.50;100245.00;;;;5067544;28;20177;-42
2022/12/11 05:08:56;;;;;;;19.10;15.63;;;13.10;52.50;14.50;100247.00;;;;5067538;28;20197;-42
2022/12/11 05:11:22;;;;;;;18.50;15.10;;;13.10;52.60;14.50;100244.00;;;;5068277;28;20181;-43
2022/12/11 05:13:48;;;;;;;15.93;14.20;;;13.00;52.30;14.40;100249.00;;;;5068506;28;20651;-42
2022/12/11 05:16:15;;;;;;;18.83;15.30;;;13.10;52.50;14.40;100260.00;;;;5067824;28;20176;-42
2022/12/11 05:18:41;;;;;;;18.03;14.90;;;13.00;52.30;14.40;100243.00;;;;5067804;28;20186;-43
2022/12/11 05:21:10;;;;;;;17.20;14.53;;;13.10;52.30;14.40;100256.00;;;;5068090;28;20320;-44
2022/12/11 05:23:36;;;;;;;17.47;14.67;;;13.10;52.10;14.40;100250.00;;;;5067228;28;20351;-44
2022/12/11 05:26:04;;;;;;;17.17;13.67;;;13.10;52.10;14.10;100169.00;;;;5068201;28;20562;-42
2022/12/11 05:28:33;;;;;;;18.13;14.80;;;13.10;52.10;14.40;100246.00;;;;5067561;28;20209;-43
2022/12/11 05:31:02;;;;;;;17.63;14.20;;;13.10;52.10;14.40;100247.00;;;;5067801;28;20665;-42
2022/12/11 05:33:28;;;;;;;17.07;14.03;;;13.20;52.20;14.40;100253.00;;;;5067595;28;20658;-42
2022/12/11 05:35:53;;;;;;;19.37;13.93;;;13.20;52.20;14.40;100250.00;;;;5068164;28;20169;-42
2022/12/11 05:38:19;;;;;;;16.53;13.80;;;13.20;52.60;14.40;100254.00;;;;5068306;28;20196;-43
2022/12/11 05:41:04;;;;;;;18.67;13.70;;;13.20;52.30;14.40;100251.00;;;;5067709;28;20221;-42
2022/12/11 05:43:32;;;;;;;19.17;13.60;;;13.20;52.30;14.40;100254.00;;;;5052198;28;20569;-43
2022/12/11 05:46:10;;;;;;;15.00;13.10;;;13.20;52.50;14.40;100250.00;;;;5067631;28;20180;-43
2022/12/11 05:48:36;;;;;;;16.33;13.20;;;13.20;52.60;14.40;100238.00;;;;5068592;28;20618;-42
2022/12/11 05:51:02;;;;;;;15.40;12.93;;;13.20;52.50;14.40;100244.00;;;;5069377;28;20162;-42
2022/12/11 05:53:28;;;;;;;17.27;13.23;;;13.20;52.70;14.40;100249.00;;;;5071362;28;20701;-44
2022/12/11 05:55:54;;;;;;;16.10;13.33;;;13.10;52.60;14.30;100230.00;;;;5054021;28;20162;-44
2022/12/11 05:58:20;;;;;;;17.37;13.67;;;13.10;52.50;14.30;100232.00;;;;5072446;28;20197;-42
2022/12/11 06:00:46;;;;;;;18.27;12.73;;;13.00;52.60;14.30;100230.00;;;;5071963;28;20177;-42
2022/12/11 06:03:12;;;;;;;20.83;15.37;;;13.00;52.60;14.20;100236.00;;;;5070960;28;20189;-43
2022/12/11 06:05:41;;;;;;;21.40;16.00;;;12.90;52.50;14.20;100236.00;;;;5071474;28;20169;-44
2022/12/11 06:08:06;;;;;;;23.07;16.07;;;12.80;52.40;14.20;100231.00;;;;5054085;28;20999;-43
2022/12/11 06:10:32;;;;;;;25.17;17.07;;;12.80;52.30;14.20;100234.00;;;;5072100;28;20166;-42
2022/12/11 06:12:58;;;;;;;23.53;15.40;;;12.80;52.30;14.20;100230.00;;;;5053223;28;20196;-42
2022/12/11 06:15:24;;;;;;;18.87;16.27;;;12.80;52.20;14.10;100227.00;;;;5072046;28;20249;-42
2022/12/11 06:17:49;;;;;;;23.10;15.87;;;12.80;52.10;14.10;100233.00;;;;5072099;28;20188;-42
2022/12/11 06:20:15;;;;;;;21.80;15.37;;;12.70;52.00;14.10;100227.00;;;;5072040;28;20166;-43
2022/12/11 06:22:41;;;;;;;18.43;14.90;;;12.80;52.10;14.10;100232.00;;;;5071187;28;20777;-42
2022/12/11 06:25:07;;;;;;;19.80;15.90;;;12.80;52.60;14.10;100228.00;;;;5071015;28;20166;-42
2022/12/11 06:27:33;;;;;;;23.33;15.10;;;12.90;52.10;14.10;100226.00;;;;5054115;28;20169;-43
2022/12/11 06:29:59;;;;;;;21.23;15.37;;;12.90;52.10;14.10;100220.00;;;;5071159;28;20747;-42
2022/12/11 06:32:24;;;;;;;21.63;15.07;;;13.00;52.20;14.10;100223.00;;;;5071460;28;20197;-42
2022/12/11 06:34:50;;;;;;;20.23;15.10;;;13.00;52.00;14.10;100230.00;;;;5053224;28;20182;-42
2022/12/11 06:37:16;;;;;;;16.83;14.50;;;13.10;52.10;14.20;100228.00;;;;5072142;28;20543;-44
2022/12/11 06:39:41;;;;;;;16.63;13.87;;;13.20;52.20;14.20;100228.00;;;;5071343;28;20204;-43
2022/12/11 06:42:07;;;;;;;23.77;14.30;;;13.20;52.10;14.20;100223.00;;;;5070993;28;20173;-43
2022/12/11 06:44:33;;;;;;;19.53;13.47;;;13.20;52.30;14.20;100228.00;;;;5070314;28;20198;-42
2022/12/11 06:46:59;;;;;;;17.57;13.03;;;13.30;51.90;14.30;100226.00;;;;5053338;28;20174;-43
2022/12/11 06:49:24;;;;;;;16.70;13.00;;;13.40;52.10;14.30;100226.00;;;;5071547;28;20189;-42
2022/12/11 06:51:50;;;;;;;15.20;12.53;;;13.40;52.20;14.30;100230.00;;;;5071244;28;20179;-42
2022/12/11 06:54:16;;;;;;;15.73;12.30;;;13.50;52.40;14.30;100232.00;;;;5070641;28;20173;-43
2022/12/11 06:56:41;;;;;;;15.57;11.17;;;13.60;52.50;14.40;100242.00;;;;5071066;28;20661;-43
2022/12/11 06:59:11;;;;;;;12.97;10.83;;;13.70;52.40;14.50;100237.00;;;;5071158;28;20190;-42
2022/12/11 07:01:37;;;;;;;14.53;10.37;;;13.90;52.30;14.60;100239.00;;;;5070948;28;20904;-43
2022/12/11 07:04:02;;;;;;;15.20;10.17;;;14.10;52.10;14.70;100237.00;;;;5069907;28;20194;-43
2022/12/11 07:06:28;;;;;;;12.93;10.20;;;14.30;52.00;14.80;100224.00;;;;5071060;28;20172;-42
2022/12/11 07:08:54;;;;;;;10.93;9.53;;;14.50;51.90;14.90;100232.00;;;;5071090;28;20181;-42
2022/12/11 07:11:20;;;;;;;12.33;9.17;;;14.70;52.30;15.00;100241.00;;;;5070677;28;20220;-42
2022/12/11 07:13:46;;;;;;;11.97;8.90;;;14.80;51.50;15.20;100237.00;;;;5070149;28;20536;-42
2022/12/11 07:16:13;;;;;;;9.80;8.80;;;14.90;51.40;15.30;100239.00;;;;5070366;28;20166;-43
2022/12/11 07:18:41;;;;;;;9.93;8.30;;;15.10;51.40;15.40;100242.00;;;;5070732;28;20670;-44
2022/12/11 07:21:07;;;;;;;10.10;8.83;;;15.20;51.40;15.40;100252.00;;;;5070457;28;20200;-43
2022/12/11 07:23:33;;;;;;;9.33;7.77;;;15.20;51.30;15.50;100251.00;;;;5070082;28;20623;-43
2022/12/11 07:26:03;;;;;;;9.67;7.80;;;15.30;52.10;15.60;100251.00;;;;5070567;28;20176;-43
2022/12/11 07:28:28;;;;;;;8.73;7.83;;;15.30;51.50;15.70;100249.00;;;;5052933;28;20200;-43
2022/12/11 07:30:54;;;;;;;8.20;7.27;;;15.40;51.60;15.70;100240.00;;;;5069982;28;20162;-42
2022/12/11 07:33:20;;;;;;;7.97;7.10;;;15.40;51.70;15.80;100241.00;;;;5069467;28;20165;-43
2022/12/11 07:35:45;;;;;;;7.57;6.77;;;15.40;51.80;15.80;100241.00;;;;5069976;28;20723;-43
2022/12/11 07:38:11;;;;;;;7.53;6.83;;;15.50;51.90;15.90;100246.00;;;;5070205;28;20193;-43
2022/12/11 07:40:37;;;;;;;10.60;7.10;;;15.50;51.90;15.90;100252.00;;;;5052810;28;20173;-43
2022/12/11 07:43:03;;;;;;;8.53;7.30;;;15.50;51.90;15.70;100245.00;;;;5070049;28;20255;-43
2022/12/11 07:45:28;;;;;;;8.20;6.87;;;15.50;51.90;16.00;100252.00;;;;5070348;28;20211;-44
2022/12/11 07:47:54;;;;;;;7.80;7.00;;;15.60;52.00;16.00;100251.00;;;;5069859;28;20664;-44
2022/12/11 07:50:20;;;;;;;7.40;6.60;;;15.60;52.10;16.00;100253.00;;;;5070168;28;20737;-44
2022/12/11 07:52:45;;;;;;;7.07;6.37;;;15.60;52.20;16.10;100252.00;;;;5051387;28;20165;-44
2022/12/11 07:55:11;;;;;;;6.77;6.17;;;15.60;52.30;16.10;100246.00;;;;5070452;28;20670;-43
2022/12/11 07:57:37;;;;;;;7.00;6.30;;;15.60;52.30;16.10;100247.00;;;;5070992;28;20169;-44
2022/12/11 08:00:04;;;;;;;7.40;6.70;;;15.60;52.20;16.10;100248.00;;;;5070096;28;20192;-44
2022/12/11 08:02:30;;;;;;;7.33;6.37;;;15.60;52.40;16.20;100253.00;;;;5052790;28;20893;-42
2022/12/11 08:04:55;;;;;;;6.83;6.13;;;15.60;52.40;16.20;100240.00;;;;5069964;28;20161;-42
2022/12/11 08:07:21;;;;;;;6.73;5.97;;;15.60;52.50;16.20;100238.00;;;;5070029;28;20170;-43
2022/12/11 08:09:47;;;;;;;6.50;5.87;;;15.60;52.40;16.20;100236.00;;;;5070078;28;20182;-44
2022/12/11 08:12:12;;;;;;;8.47;6.33;;;15.60;52.40;16.20;100238.00;;;;5070373;28;20757;-42
2022/12/11 08:14:38;;;;;;;6.83;6.03;;;15.60;52.50;16.20;100236.00;;;;5069613;28;20200;-43
2022/12/11 08:17:04;;;;;;;8.27;5.53;;;15.70;52.60;16.20;100231.00;;;;5070126;28;20185;-42
2022/12/11 08:19:30;;;;;;;7.63;5.70;;;15.70;52.60;16.30;100237.00;;;;5069444;28;20234;-42
2022/12/11 08:21:55;;;;;;;7.07;5.57;;;15.70;52.60;16.30;100241.00;;;;5069232;28;20211;-44
2022/12/11 08:24:21;;;;;;;6.10;5.50;;;15.70;52.60;16.30;100233.00;;;;5068665;28;20197;-43
2022/12/11 08:26:47;;;;;;;6.27;5.53;;;15.70;52.70;16.30;100244.00;;;;5068336;28;20172;-44
2022/12/11 08:29:13;;;;;;;7.10;5.80;;;15.70;52.70;16.30;100242.00;;;;5051226;28;20185;-43
2022/12/11 08:31:39;;;;;;;6.03;5.43;;;15.70;52.80;16.30;100243.00;;;;5050912;28;20279;-43
2022/12/11 08:34:05;;;;;;;6.33;5.23;;;15.70;52.90;16.30;100240.00;;;;5068504;28;20272;-43
2022/12/11 08:36:31;;;;;;;6.17;5.57;;;15.70;53.70;16.30;100246.00;;;;5068925;28;20296;-43
2022/12/11 08:38:57;;;;;;;8.77;5.20;;;15.70;53.20;16.30;100239.00;;;;5050892;28;20818;-43
2022/12/11 08:41:27;;;;;;;6.93;5.47;;;15.70;53.20;16.30;100246.00;;;;5068943;28;20223;-43
2022/12/11 08:43:54;;;;;;;5.97;5.37;;;15.70;53.20;16.30;100226.00;;;;5051122;28;20201;-43
2022/12/11 08:46:22;;;;;;;5.80;5.20;;;15.70;53.20;16.40;100238.00;;;;5069001;28;20169;-43
2022/12/11 08:48:48;;;;;;;7.20;5.10;;;15.70;53.20;16.30;100232.00;;;;5069254;28;20208;-43
2022/12/11 08:51:16;;;;;;;6.50;4.87;;;15.70;53.40;16.40;100230.00;;;;5069222;28;20207;-43
2022/12/11 08:53:42;;;;;;;7.13;5.30;;;15.70;53.60;16.30;100151.00;;;;5068623;28;20268;-42
2022/12/11 08:56:10;;;;;;;6.77;4.80;;;15.80;53.70;16.40;100233.00;;;;5068971;28;20252;-44
2022/12/11 08:58:36;;;;;;;5.43;4.93;;;15.70;53.80;16.40;100229.00;;;;5051148;28;20196;-44
2022/12/11 09:01:07;;;;;;;7.20;4.83;;;15.80;53.70;16.40;100235.00;;;;5033975;28;20579;-45
2022/12/11 09:03:34;;;;;;;6.40;5.20;;;15.80;53.60;16.40;100231.00;;;;5048063;28;20198;-42
2022/12/11 09:06:06;;;;;;;6.63;4.73;;;15.90;53.70;16.20;100232.00;;;;5049785;28;20579;-43
2022/12/11 09:08:32;;;;;;;5.80;4.90;;;15.80;53.50;16.50;100233.00;;;;5035341;28;20227;-44
2022/12/11 09:11:23;;;;;;;7.10;5.07;;;15.80;53.60;16.50;100231.00;;;;5067873;28;20905;-43
2022/12/11 09:13:48;;;;;;;5.13;4.63;;;15.80;53.70;16.50;100224.00;;;;5050887;28;20181;-42
2022/12/11 09:16:16;;;;;;;5.03;4.53;;;15.80;53.70;16.50;100228.00;;;;5068735;28;20193;-43
2022/12/11 09:18:43;;;;;;;5.40;4.90;;;15.90;53.70;16.50;100241.00;;;;5068546;28;20193;-43
2022/12/11 09:21:12;;;;;;;6.33;4.70;;;15.90;53.60;16.50;100242.00;;;;5033420;28;20263;-43
2022/12/11 09:23:38;;;;;;;6.57;4.83;;;15.90;53.70;16.50;100250.00;;;;5068539;28;20194;-43
2022/12/11 09:26:05;;;;;;;5.20;4.57;;;15.90;53.60;16.50;100249.00;;;;5069427;28;20631;-44
2022/12/11 09:28:31;;;;;;;5.10;4.63;;;15.90;53.70;16.50;100248.00;;;;5054305;28;20554;-42
2022/12/11 09:30:57;;;;;;;6.57;4.37;;;15.90;53.60;16.50;100248.00;;;;5061390;28;20181;-45
2022/12/11 09:33:22;;;;;;;8.83;4.23;;;15.90;53.80;16.50;100244.00;;;;5062443;28;20186;-44
2022/12/11 09:36:01;;;;;;;6.93;4.60;;;15.90;53.90;16.60;100244.00;;;;5072214;28;20166;-44
2022/12/11 09:38:27;;;;;;;6.27;4.20;;;16.00;54.40;16.60;100235.00;;;;5072067;28;20538;-43
2022/12/11 09:40:53;;;;;;;5.43;4.63;;;15.90;54.40;16.60;100241.00;;;;5070521;28;20227;-44
2022/12/11 09:43:39;;;;;;;6.57;4.50;;;15.90;54.50;16.60;100247.00;;;;5070708;28;20185;-44
2022/12/11 09:46:15;;;;;;;6.00;4.13;;;15.90;54.60;16.60;100251.00;;;;5054208;28;20618;-49
2022/12/11 09:48:44;;;;;;;4.93;4.30;;;15.90;55.10;16.60;100241.00;;;;5054253;28;20276;-44
2022/12/11 09:51:33;;;;;;;6.10;4.23;;;15.90;55.20;16.60;100234.00;;;;5053460;28;20186;-42
2022/12/11 09:54:00;;;;;;;8.60;4.60;;;15.80;55.00;16.60;100226.00;;;;5052895;28;20165;-42
2022/12/11 09:56:35;;;;;;;10.63;4.47;;;15.80;54.90;16.60;100241.00;;;;5052753;28;20650;-41
2022/12/11 09:59:22;;;;;;;8.50;4.40;;;15.90;55.10;16.60;100238.00;;;;5052678;28;20247;-43
2022/12/11 10:02:18;;;;;;;8.07;3.87;;;15.90;54.90;16.60;100243.00;;;;5036122;28;20221;-42
2022/12/11 10:05:00;;;;;;;10.07;4.10;;;15.90;54.80;16.60;100238.00;;;;5055891;28;20205;-46
2022/12/11 10:07:36;;;;;;;7.53;4.00;;;16.00;55.50;16.60;100212.00;;;;5055660;28;20769;-42
2022/12/11 10:10:32;;;;;;;8.27;4.23;;;15.90;55.10;16.60;100228.00;;;;5038626;28;20680;-42
2022/12/11 10:13:23;;;;;;;8.53;3.90;;;16.00;55.00;16.60;100225.00;;;;5041246;28;20268;-42
2022/12/11 10:16:34;;;;;;;7.23;4.20;;;16.00;55.10;16.60;100224.00;;;;5072607;28;20156;-42
2022/12/11 10:18:59;;;;;;;7.47;4.20;;;16.10;55.10;16.60;100236.00;;;;5072311;28;20272;-43
2022/12/11 10:21:25;;;;;;;7.57;3.90;;;16.10;55.50;16.70;100235.00;;;;5072229;28;20351;-44
2022/12/11 10:24:01;;;;;;;8.13;4.13;;;16.00;55.80;16.70;100222.00;;;;5038324;28;20683;-44
2022/12/11 10:26:27;;;;;;;5.53;4.07;;;16.10;55.50;16.70;100221.00;;;;5020810;28;20188;-43
2022/12/11 10:28:55;;;;;;;6.00;3.63;;;16.00;55.30;16.70;100219.00;;;;5072054;28;20185;-43
2022/12/11 10:31:48;;;;;;;11.37;4.53;;;16.00;55.60;16.70;100214.00;;;;5037410;28;20177;-43
2022/12/11 10:34:33;;;;;;;6.30;4.13;;;16.00;57.40;16.70;100201.00;;;;5053880;28;20193;-43
2022/12/11 10:36:59;;;;;;;8.57;4.33;;;16.00;57.70;16.70;100213.00;;;;5042236;28;20154;-43
2022/12/11 10:39:25;;;;;;;7.43;4.40;;;16.00;57.90;16.70;100201.00;;;;5079307;28;20186;-43
2022/12/11 10:41:52;;;;;;;7.47;4.40;;;16.10;57.90;16.70;100199.00;;;;5074932;28;20185;-43
2022/12/11 10:44:26;;;;;;;8.57;4.60;;;16.00;57.70;16.70;100196.00;;;;5072486;28;20201;-43
2022/12/11 10:47:05;;;;;;;7.83;3.93;;;16.10;57.80;16.70;100196.00;;;;5071246;28;20689;-43
2022/12/11 10:49:34;;;;;;;6.60;4.30;;;16.10;57.90;16.70;100194.00;;;;5070405;28;20243;-42
2022/12/11 10:52:00;;;;;;;8.20;4.80;;;16.00;57.60;16.70;100189.00;;;;5074189;28;20150;-42
2022/12/11 10:54:40;;;;;;;10.23;5.10;;;16.00;57.30;16.80;100187.00;;;;5040595;28;20642;-43